createdAt,value
2023-09-23T00:01:55.252Z,2.08
2023-09-23T00:04:22.647Z,1.73
2023-09-23T00:06:50.664Z,2.40
2023-09-23T00:09:19.373Z,2.03
2023-09-23T00:11:46.621Z,2.00
2023-09-23T00:14:14.082Z,2.25
2023-09-23T00:16:41.610Z,2.40
2023-09-23T00:19:10.017Z,1.98
2023-09-23T00:21:37.486Z,2.20
2023-09-23T00:24:08.149Z,2.35
2023-09-23T00:26:36.739Z,2.58
2023-09-23T00:29:04.675Z,2.60
2023-09-23T00:31:31.936Z,3.15
2023-09-23T00:34:00.238Z,2.20
2023-09-23T00:36:27.492Z,1.98
2023-09-23T00:38:55.006Z,2.08
2023-09-23T00:41:22.235Z,1.70
2023-09-23T00:43:49.861Z,2.05
2023-09-23T00:46:22.774Z,2.10
2023-09-23T00:48:50.673Z,2.03
2023-09-23T00:51:20.105Z,2.13
2023-09-23T00:53:48.227Z,2.10
2023-09-23T00:56:17.892Z,1.75
2023-09-23T00:58:45.638Z,2.13
2023-09-23T01:01:15.713Z,1.95
2023-09-23T01:03:43.530Z,2.13
2023-09-23T01:06:23.577Z,2.20
2023-09-23T01:08:52.486Z,1.88
2023-09-23T01:11:20.012Z,1.95
2023-09-23T01:13:51.148Z,2.20
2023-09-23T01:16:18.949Z,1.88
2023-09-23T01:18:47.264Z,2.05
2023-09-23T01:21:14.690Z,1.80
2023-09-23T01:23:44.848Z,1.65
2023-09-23T01:26:12.996Z,2.03
2023-09-23T01:28:40.561Z,2.17
2023-09-23T01:31:08.909Z,1.65
2023-09-23T01:33:36.870Z,1.67
2023-09-23T01:36:05.354Z,1.67
2023-09-23T01:38:32.786Z,1.45
2023-09-23T01:41:05.346Z,1.65
2023-09-23T01:43:32.781Z,1.63
2023-09-23T01:46:05.220Z,1.50
2023-09-23T01:48:33.218Z,1.85
2023-09-23T01:51:00.624Z,1.65
2023-09-23T01:53:29.414Z,1.65
2023-09-23T01:55:57.178Z,1.58
2023-09-23T01:58:25.593Z,1.85
2023-09-23T02:01:00.698Z,1.45
2023-09-23T02:03:28.973Z,1.17
2023-09-23T02:05:56.983Z,1.60
2023-09-23T02:08:24.331Z,1.42
2023-09-23T02:10:53.366Z,1.65
2023-09-23T02:13:20.700Z,1.50
2023-09-23T02:15:48.061Z,1.50
2023-09-23T02:18:15.747Z,1.40
2023-09-23T02:20:44.371Z,1.40
2023-09-23T02:23:12.460Z,1.33
2023-09-23T02:25:39.782Z,1.42
2023-09-23T02:28:07.046Z,1.30
2023-09-23T02:30:35.197Z,1.23
2023-09-23T02:33:02.582Z,1.30
2023-09-23T02:35:31.481Z,1.30
2023-09-23T02:37:59.574Z,1.30
2023-09-23T02:40:28.460Z,1.48
2023-09-23T02:42:58.830Z,1.30
2023-09-23T02:45:26.136Z,1.13
2023-09-23T02:47:54.043Z,1.27
2023-09-23T02:50:22.087Z,1.13
2023-09-23T02:52:52.307Z,1.23
2023-09-23T02:55:22.984Z,1.48
2023-09-23T02:57:53.076Z,1.05
2023-09-23T03:00:24.589Z,1.20
2023-09-23T03:03:00.426Z,1.00
2023-09-23T03:05:33.022Z,1.35
2023-09-23T03:08:01.361Z,1.08
2023-09-23T03:10:41.624Z,1.50
2023-09-23T03:13:12.366Z,1.30
2023-09-23T03:15:54.545Z,1.05
2023-09-23T03:18:35.366Z,1.15
2023-09-23T03:21:10.133Z,1.10
2023-09-23T03:23:41.733Z,1.25
2023-09-23T03:26:13.519Z,1.20
2023-09-23T03:28:42.237Z,1.27
2023-09-23T03:31:10.035Z,0.88
2023-09-23T03:33:39.781Z,0.98
2023-09-23T03:36:15.064Z,1.00
2023-09-23T03:38:42.333Z,1.10
2023-09-23T03:41:13.108Z,1.33
2023-09-23T03:43:40.752Z,1.17
2023-09-23T03:46:18.262Z,1.00
2023-09-23T03:48:46.365Z,1.40
2023-09-23T03:51:16.127Z,1.30
2023-09-23T03:53:47.950Z,1.25
2023-09-23T03:56:16.793Z,1.02
2023-09-23T04:01:16.206Z,1.00
2023-09-23T04:03:43.666Z,1.20
2023-09-23T04:06:10.966Z,1.30
2023-09-23T04:08:38.136Z,1.30
2023-09-23T04:11:06.590Z,1.08
2023-09-23T04:13:33.908Z,1.05
2023-09-23T04:16:01.913Z,1.23
2023-09-23T04:18:29.840Z,1.08
2023-09-23T04:20:57.368Z,1.10
2023-09-23T04:23:24.604Z,1.30
2023-09-23T04:25:51.853Z,1.00
2023-09-23T04:28:19.964Z,1.10
2023-09-23T04:30:47.464Z,1.60
2023-09-23T04:33:14.875Z,1.23
2023-09-23T04:35:42.218Z,1.30
2023-09-23T04:38:09.477Z,1.45
2023-09-23T04:40:36.734Z,1.08
2023-09-23T04:43:04.552Z,0.95
2023-09-23T04:45:32.375Z,1.25
2023-09-23T04:48:02.173Z,1.10
2023-09-23T04:50:29.462Z,1.02
2023-09-23T04:52:56.763Z,1.20
2023-09-23T04:55:24.306Z,1.23
2023-09-23T04:57:51.769Z,1.52
2023-09-23T05:00:20.878Z,1.33
2023-09-23T05:02:51.620Z,1.80
2023-09-23T05:05:20.268Z,1.10
2023-09-23T05:07:47.622Z,1.60
2023-09-23T05:10:15.002Z,1.30
2023-09-23T05:12:42.376Z,1.13
2023-09-23T05:15:16.250Z,1.52
2023-09-23T05:17:45.549Z,1.40
2023-09-23T05:22:55.150Z,1.20
2023-09-23T05:25:25.599Z,1.00
2023-09-23T05:27:56.647Z,1.10
2023-09-23T05:30:24.027Z,1.05
2023-09-23T05:32:52.178Z,0.95
2023-09-23T05:35:19.626Z,1.30
2023-09-23T05:37:50.677Z,1.33
2023-09-23T05:40:27.796Z,1.33
2023-09-23T05:42:55.650Z,1.50
2023-09-23T05:45:25.754Z,1.10
2023-09-23T05:47:53.998Z,0.93
2023-09-23T05:50:22.348Z,1.00
2023-09-23T05:52:50.027Z,1.20
2023-09-23T05:55:17.469Z,1.15
2023-09-23T05:57:45.109Z,1.10
2023-09-23T06:00:16.218Z,1.30
2023-09-23T06:02:46.083Z,1.00
2023-09-23T06:05:15.212Z,1.20
2023-09-23T06:07:42.838Z,1.33
2023-09-23T06:10:12.103Z,1.55
2023-09-23T06:12:39.629Z,1.00
2023-09-23T06:15:07.492Z,1.20
2023-09-23T06:17:34.793Z,1.10
2023-09-23T06:20:02.257Z,1.17
2023-09-23T06:22:29.821Z,1.00
2023-09-23T06:24:57.081Z,1.15
2023-09-23T06:27:24.351Z,0.88
2023-09-23T06:29:51.539Z,1.10
2023-09-23T06:32:18.850Z,1.20
2023-09-23T06:34:46.191Z,1.15
2023-09-23T06:37:13.650Z,1.02
2023-09-23T06:39:41.633Z,0.85
2023-09-23T06:42:11.171Z,1.17
2023-09-23T06:44:38.478Z,1.15
2023-09-23T06:47:06.012Z,1.30
2023-09-23T06:49:33.312Z,1.10
2023-09-23T06:52:00.520Z,1.10
2023-09-23T06:54:27.860Z,1.08
2023-09-23T06:56:55.961Z,1.08
2023-09-23T06:59:23.588Z,1.02
2023-09-23T07:01:51.097Z,1.05
2023-09-23T07:04:18.980Z,1.15
2023-09-23T07:06:46.449Z,1.17
2023-09-23T07:09:14.020Z,0.85
2023-09-23T07:11:44.701Z,1.08
2023-09-23T07:14:11.978Z,1.42
2023-09-23T07:16:39.209Z,1.02
2023-09-23T07:19:06.793Z,1.23
2023-09-23T07:21:34.257Z,0.90
2023-09-23T07:24:01.529Z,1.38
2023-09-23T07:26:28.802Z,1.10
2023-09-23T07:28:56.208Z,1.20
2023-09-23T07:31:24.025Z,1.00
2023-09-23T07:33:51.259Z,1.23
2023-09-23T07:36:18.684Z,0.80
2023-09-23T07:38:45.903Z,1.25
2023-09-23T07:41:13.138Z,1.73
2023-09-23T07:43:40.841Z,1.20
2023-09-23T07:46:08.178Z,1.23
2023-09-23T07:48:35.531Z,1.13
2023-09-23T07:51:02.691Z,1.20
2023-09-23T07:53:30.147Z,1.08
2023-09-23T07:55:57.706Z,0.90
2023-09-23T07:58:25.014Z,1.25
2023-09-23T08:00:52.810Z,1.40
2023-09-23T08:03:20.046Z,1.13
2023-09-23T08:05:47.497Z,0.95
2023-09-23T08:08:14.765Z,1.10
2023-09-23T08:10:41.991Z,1.05
2023-09-23T08:13:09.285Z,1.00
2023-09-23T08:15:36.628Z,1.00
2023-09-23T08:18:03.935Z,1.00
2023-09-23T08:20:31.403Z,1.02
2023-09-23T08:22:59.496Z,1.17
2023-09-23T08:25:26.950Z,1.10
2023-09-23T08:27:55.308Z,1.00
2023-09-23T08:30:23.383Z,1.27
2023-09-23T08:32:50.821Z,1.60
2023-09-23T08:35:18.301Z,1.02
2023-09-23T08:37:47.339Z,1.45
2023-09-23T08:40:17.151Z,1.08
2023-09-23T08:42:44.477Z,1.20
2023-09-23T08:45:11.973Z,1.10
2023-09-23T08:47:39.463Z,1.00
2023-09-23T08:50:10.637Z,0.82
2023-09-23T08:52:38.977Z,1.15
2023-09-23T08:55:07.214Z,1.23
2023-09-23T08:57:34.783Z,1.10
2023-09-23T09:00:02.144Z,1.50
2023-09-23T09:02:30.800Z,0.98
2023-09-23T09:04:58.936Z,0.98
2023-09-23T09:07:27.080Z,1.00
2023-09-23T09:09:54.611Z,0.90
2023-09-23T09:12:22.512Z,1.00
2023-09-23T09:14:52.014Z,1.00
2023-09-23T09:17:20.652Z,1.17
2023-09-23T09:19:50.965Z,1.20
2023-09-23T09:22:20.588Z,0.98
2023-09-23T09:24:50.775Z,1.00
2023-09-23T09:27:17.911Z,0.80
2023-09-23T09:29:48.526Z,0.93
2023-09-23T09:32:18.143Z,1.40
2023-09-23T09:34:49.277Z,1.20
2023-09-23T09:37:16.869Z,1.00
2023-09-23T09:39:56.696Z,1.00
2023-09-23T09:42:31.923Z,1.40
2023-09-23T09:44:59.480Z,1.05
2023-09-23T09:47:30.375Z,1.08
2023-09-23T09:49:59.143Z,1.90
2023-09-23T09:52:29.797Z,1.10
2023-09-23T09:54:59.142Z,0.70
2023-09-23T09:57:30.320Z,1.50
2023-09-23T10:00:01.894Z,1.40
2023-09-23T10:02:29.538Z,1.13
2023-09-23T10:05:03.781Z,1.35
2023-09-23T10:07:51.398Z,0.90
2023-09-23T10:10:18.605Z,1.10
2023-09-23T10:12:55.701Z,1.00
2023-09-23T10:15:28.823Z,1.45
2023-09-23T10:17:56.398Z,1.30
2023-09-23T10:20:25.772Z,1.15
2023-09-23T10:22:56.576Z,1.13
2023-09-23T10:25:23.806Z,1.00
2023-09-23T10:27:57.950Z,0.88
2023-09-23T10:30:27.518Z,1.15
2023-09-23T10:32:54.773Z,0.73
2023-09-23T10:35:24.905Z,1.92
2023-09-23T10:37:52.225Z,0.90
2023-09-23T10:40:19.461Z,1.20
2023-09-23T10:42:50.511Z,1.15
2023-09-23T10:45:23.588Z,1.50
2023-09-23T10:47:51.718Z,1.10
2023-09-23T10:50:18.979Z,1.50
2023-09-23T10:52:46.218Z,0.80
2023-09-23T10:55:13.975Z,1.10
2023-09-23T10:57:41.560Z,0.93
2023-09-23T11:00:17.506Z,0.82
2023-09-23T11:02:46.044Z,0.82
2023-09-23T11:05:14.316Z,0.80
2023-09-23T11:07:43.686Z,0.98
2023-09-23T11:10:14.285Z,0.80
2023-09-23T11:12:47.722Z,0.85
2023-09-23T11:15:15.180Z,0.63
2023-09-23T11:17:43.338Z,1.20
2023-09-23T11:20:14.688Z,0.80
2023-09-23T11:22:45.314Z,0.82
2023-09-23T11:25:13.639Z,0.85
2023-09-23T11:27:41.886Z,0.65
2023-09-23T11:30:09.497Z,0.80
2023-09-23T11:32:36.859Z,0.80
2023-09-23T11:35:04.653Z,0.80
2023-09-23T11:37:31.822Z,0.50
2023-09-23T11:39:58.972Z,0.70
2023-09-23T11:42:26.161Z,0.65
2023-09-23T11:44:54.020Z,1.05
2023-09-23T11:47:22.607Z,0.90
2023-09-23T11:49:50.591Z,0.60
2023-09-23T11:52:18.507Z,1.05
2023-09-23T11:54:45.678Z,0.55
2023-09-23T11:57:13.837Z,0.60
2023-09-23T11:59:41.459Z,0.60
2023-09-23T12:02:10.068Z,0.70
2023-09-23T12:04:37.608Z,0.77
2023-09-23T12:07:07.253Z,0.63
2023-09-23T12:09:37.298Z,0.70
2023-09-23T12:12:04.524Z,0.70
2023-09-23T12:14:31.757Z,0.80
2023-09-23T12:16:59.145Z,0.73
2023-09-23T12:19:26.485Z,0.90
2023-09-23T12:21:53.671Z,0.98
2023-09-23T12:24:20.889Z,0.90
2023-09-23T12:26:48.146Z,0.80
2023-09-23T12:29:15.338Z,0.75
2023-09-23T12:31:42.627Z,1.00
2023-09-23T12:34:09.891Z,1.10
2023-09-23T12:36:37.301Z,0.80
2023-09-23T12:39:04.570Z,0.93
2023-09-23T12:41:32.230Z,0.95
2023-09-23T12:43:59.584Z,0.85
2023-09-23T12:46:26.963Z,1.05
2023-09-23T12:48:54.141Z,1.27
2023-09-23T12:51:21.775Z,0.80
2023-09-23T12:53:49.154Z,0.95
2023-09-23T12:56:19.450Z,1.02
2023-09-23T12:58:46.941Z,1.00
2023-09-23T13:01:15.017Z,1.10
2023-09-23T13:03:42.719Z,1.10
2023-09-23T13:06:10.040Z,0.80
2023-09-23T13:08:37.297Z,1.33
2023-09-23T13:11:04.784Z,1.15
2023-09-23T13:13:31.986Z,1.08
2023-09-23T13:15:59.805Z,1.00
2023-09-23T13:18:27.167Z,1.10
2023-09-23T13:20:54.426Z,1.23
2023-09-23T13:23:22.958Z,1.17
2023-09-23T13:25:50.294Z,1.63
2023-09-23T13:28:17.620Z,1.00
2023-09-23T13:30:45.129Z,0.90
2023-09-23T13:33:12.555Z,1.10
2023-09-23T13:35:40.629Z,0.80
2023-09-23T13:38:08.080Z,1.05
2023-09-23T13:40:38.533Z,1.00
2023-09-23T13:43:05.804Z,1.13
2023-09-23T13:45:33.492Z,1.10
2023-09-23T13:48:00.804Z,1.17
2023-09-23T13:50:28.164Z,0.85
2023-09-23T13:52:56.008Z,1.00
2023-09-23T13:55:23.663Z,1.00
2023-09-23T13:57:51.789Z,0.90
2023-09-23T14:00:19.013Z,0.82
2023-09-23T14:02:46.511Z,0.90
2023-09-23T14:05:13.873Z,1.05
2023-09-23T14:07:41.124Z,0.95
2023-09-23T14:10:20.656Z,1.05
2023-09-23T14:12:49.761Z,1.15
2023-09-23T14:15:18.692Z,0.68
2023-09-23T14:20:15.033Z,0.80
2023-09-23T14:22:46.696Z,0.90
2023-09-23T14:25:15.562Z,0.80
2023-09-23T14:27:44.323Z,0.82
2023-09-23T14:30:12.496Z,1.10
2023-09-23T14:32:40.056Z,0.80
2023-09-23T14:35:07.698Z,0.70
2023-09-23T14:37:35.460Z,1.00
2023-09-23T14:40:03.323Z,0.82
2023-09-23T14:42:30.782Z,1.95
2023-09-23T14:44:58.157Z,0.70
2023-09-23T14:47:25.525Z,0.90
2023-09-23T14:49:53.311Z,0.60
2023-09-23T14:52:22.755Z,0.80
2023-09-23T14:54:50.332Z,0.88
2023-09-23T14:57:19.972Z,0.98
2023-09-23T14:59:48.578Z,0.90
2023-09-23T15:02:16.818Z,1.00
2023-09-23T15:04:51.364Z,0.80
2023-09-23T15:07:19.944Z,0.88
2023-09-23T15:09:47.665Z,0.75
2023-09-23T15:12:15.229Z,0.73
2023-09-23T15:14:44.956Z,0.98
2023-09-23T15:17:14.207Z,0.85
2023-09-23T15:19:41.497Z,0.70
2023-09-23T15:22:09.943Z,0.85
2023-09-23T15:24:37.281Z,0.63
2023-09-23T15:27:04.443Z,0.90
2023-09-23T15:29:31.763Z,0.70
2023-09-23T15:31:59.063Z,1.00
2023-09-23T15:34:26.355Z,0.73
2023-09-23T15:36:55.900Z,0.60
2023-09-23T15:39:23.269Z,0.80
2023-09-23T15:41:50.736Z,0.90
2023-09-23T15:44:17.970Z,0.70
2023-09-23T15:46:45.373Z,0.70
2023-09-23T15:49:13.341Z,0.70
2023-09-23T15:51:41.161Z,0.70
2023-09-23T15:54:08.371Z,0.60
2023-09-23T15:56:41.014Z,1.25
2023-09-23T15:59:09.169Z,1.08
2023-09-23T16:01:36.827Z,0.65
2023-09-23T16:04:04.436Z,0.82
2023-09-23T16:06:31.737Z,0.52
2023-09-23T16:08:59.219Z,0.73
2023-09-23T16:11:26.460Z,0.75
2023-09-23T16:13:53.817Z,0.50
2023-09-23T16:16:21.100Z,0.90
2023-09-23T16:18:49.668Z,0.77
2023-09-23T16:23:44.491Z,0.65
2023-09-23T16:26:11.890Z,0.65
2023-09-23T16:28:39.142Z,0.43
2023-09-23T16:31:06.354Z,0.63
2023-09-23T16:33:33.784Z,0.60
2023-09-23T16:36:00.995Z,0.70
2023-09-23T16:38:28.237Z,0.70
2023-09-23T16:40:55.507Z,0.60
2023-09-23T16:43:27.610Z,0.60
2023-09-23T16:45:55.037Z,0.60
2023-09-23T16:48:22.944Z,0.80
2023-09-23T16:50:51.211Z,0.65
2023-09-23T16:53:18.632Z,0.60
2023-09-23T16:55:46.241Z,0.60
2023-09-23T16:58:16.360Z,1.08
2023-09-23T17:00:44.059Z,0.55
2023-09-23T17:03:11.787Z,0.63
2023-09-23T17:05:39.187Z,0.50
2023-09-23T17:08:09.642Z,0.60
2023-09-23T17:10:36.886Z,0.63
2023-09-23T17:13:04.203Z,0.60
2023-09-23T17:15:31.452Z,0.65
2023-09-23T17:17:58.728Z,0.77
2023-09-23T17:20:27.876Z,0.70
2023-09-23T17:22:55.197Z,0.75
2023-09-23T17:25:22.504Z,0.60
2023-09-23T17:27:49.867Z,0.55
2023-09-23T17:30:17.054Z,0.50
2023-09-23T17:32:44.567Z,0.60
2023-09-23T17:35:12.528Z,1.23
2023-09-23T17:37:39.801Z,0.90
2023-09-23T17:40:07.417Z,0.90
2023-09-23T17:42:34.630Z,0.95
2023-09-23T17:45:01.850Z,1.13
2023-09-23T17:47:29.556Z,1.20
2023-09-23T17:49:57.081Z,0.70
2023-09-23T17:52:24.240Z,0.80
2023-09-23T17:54:51.570Z,0.95
2023-09-23T17:57:18.792Z,0.60
2023-09-23T17:59:46.094Z,0.68
2023-09-23T18:02:13.386Z,0.93
2023-09-23T18:04:40.781Z,1.02
2023-09-23T18:07:07.983Z,0.88
2023-09-23T18:09:35.749Z,2.35
2023-09-23T18:12:03.006Z,0.95
2023-09-23T18:14:30.209Z,1.00
2023-09-23T18:16:57.431Z,0.80
2023-09-23T18:19:24.626Z,0.90
2023-09-23T18:21:53.060Z,1.00
2023-09-23T18:24:20.423Z,1.10
2023-09-23T18:26:47.936Z,0.73
2023-09-23T18:29:15.173Z,0.73
2023-09-23T18:31:44.918Z,0.70
2023-09-23T18:34:12.345Z,0.63
2023-09-23T18:36:39.683Z,0.73
2023-09-23T18:39:07.441Z,0.90
2023-09-23T18:41:35.845Z,0.90
2023-09-23T18:44:03.649Z,0.73
2023-09-23T18:46:31.320Z,0.70
2023-09-23T18:49:02.707Z,1.25
2023-09-23T18:51:30.007Z,0.70
2023-09-23T18:53:57.346Z,0.85
2023-09-23T18:56:24.581Z,0.68
2023-09-23T18:58:51.810Z,0.80
2023-09-23T19:01:21.337Z,0.90
2023-09-23T19:03:48.830Z,0.90
2023-09-23T19:06:16.430Z,0.90
2023-09-23T19:08:44.840Z,0.65
2023-09-23T19:11:12.557Z,0.82
2023-09-23T19:13:39.947Z,0.80
2023-09-23T19:16:07.154Z,1.08
2023-09-23T19:18:34.550Z,1.00
2023-09-23T19:21:03.203Z,0.80
2023-09-23T19:23:30.440Z,0.90
2023-09-23T19:25:58.858Z,1.00
2023-09-23T19:28:26.792Z,1.00
2023-09-23T19:30:55.732Z,1.00
2023-09-23T19:33:23.433Z,1.08
2023-09-23T19:35:52.143Z,0.90
2023-09-23T19:38:19.542Z,1.10
2023-09-23T19:40:47.375Z,1.05
2023-09-23T19:43:14.597Z,0.90
2023-09-23T19:45:41.871Z,0.80
2023-09-23T19:48:09.162Z,0.95
2023-09-23T19:50:36.661Z,1.00
2023-09-23T19:53:05.874Z,0.70
2023-09-23T19:55:33.929Z,0.73
2023-09-23T19:58:01.138Z,0.90
2023-09-23T20:00:29.224Z,0.98
2023-09-23T20:02:57.070Z,1.40
2023-09-23T20:05:24.553Z,0.90
2023-09-23T20:07:51.898Z,1.35
2023-09-23T20:10:19.297Z,0.90
2023-09-23T20:12:46.643Z,1.35
2023-09-23T20:15:15.171Z,1.95
2023-09-23T20:17:47.344Z,1.20
2023-09-23T20:20:15.532Z,1.10
2023-09-23T20:22:43.561Z,1.33
2023-09-23T20:25:12.347Z,1.35
2023-09-23T20:27:40.049Z,1.60
2023-09-23T20:30:08.667Z,1.10
2023-09-23T20:32:39.048Z,1.17
2023-09-23T20:35:07.754Z,1.65
2023-09-23T20:37:38.639Z,1.35
2023-09-23T20:40:07.888Z,1.30
2023-09-23T20:42:35.613Z,1.60
2023-09-23T20:45:04.486Z,1.13
2023-09-23T20:47:32.372Z,1.30
2023-09-23T20:50:06.437Z,1.67
2023-09-23T20:52:34.318Z,1.40
2023-09-23T20:55:01.528Z,1.40
2023-09-23T20:57:30.879Z,1.25
2023-09-23T20:59:58.630Z,1.20
2023-09-23T21:02:26.166Z,1.30
2023-09-23T21:04:54.461Z,1.23
2023-09-23T21:07:21.628Z,1.55
2023-09-23T21:09:49.574Z,1.42
2023-09-23T21:12:16.735Z,1.42
2023-09-23T21:14:43.969Z,1.38
2023-09-23T21:17:12.142Z,1.52
2023-09-23T21:19:39.897Z,1.27
2023-09-23T21:22:07.674Z,1.52
2023-09-23T21:24:34.967Z,1.75
2023-09-23T21:27:02.145Z,1.50
2023-09-23T21:29:29.329Z,1.65
2023-09-23T21:31:56.635Z,1.25
2023-09-23T21:34:23.918Z,1.52
2023-09-23T21:36:51.145Z,1.52
2023-09-23T21:39:18.316Z,1.40
2023-09-23T21:41:45.519Z,1.70
2023-09-23T21:44:12.986Z,1.67
2023-09-23T21:46:40.212Z,2.05
2023-09-23T21:49:07.832Z,1.70
2023-09-23T21:51:35.905Z,1.73
2023-09-23T21:54:03.155Z,2.28
2023-09-23T21:56:43.023Z,1.65
2023-09-23T21:59:11.994Z,1.80
2023-09-23T22:01:39.524Z,1.88
2023-09-23T22:04:08.548Z,1.80
2023-09-23T22:06:37.466Z,1.70
2023-09-23T22:09:04.773Z,1.80
2023-09-23T22:11:34.879Z,1.95
2023-09-23T22:14:06.600Z,1.73
2023-09-23T22:16:41.901Z,1.73
2023-09-23T22:19:10.565Z,1.60
2023-09-23T22:21:41.367Z,1.90
2023-09-23T22:24:09.239Z,2.20
2023-09-23T22:26:37.955Z,2.15
2023-09-23T22:29:10.076Z,2.47
2023-09-23T22:31:37.937Z,2.03
2023-09-23T22:34:05.236Z,2.38
2023-09-23T22:36:35.366Z,2.45
2023-09-23T22:39:03.839Z,2.38
2023-09-23T22:41:31.761Z,2.50
2023-09-23T22:44:00.107Z,2.72
2023-09-23T22:46:27.436Z,2.20
2023-09-23T22:48:55.178Z,2.47
2023-09-23T22:51:22.532Z,2.10
2023-09-23T22:53:51.270Z,2.17
2023-09-23T22:56:18.976Z,2.08
2023-09-23T22:58:48.632Z,2.13
2023-09-23T23:01:17.245Z,2.08
2023-09-23T23:03:44.789Z,2.13
2023-09-23T23:06:12.491Z,1.95
2023-09-23T23:08:39.996Z,2.10
2023-09-23T23:11:08.579Z,2.70
2023-09-23T23:13:38.876Z,1.83
2023-09-23T23:16:10.187Z,2.20
2023-09-23T23:18:37.548Z,2.08
2023-09-23T23:21:05.150Z,1.88
2023-09-23T23:23:32.578Z,1.83
2023-09-23T23:26:02.884Z,1.80
2023-09-23T23:28:33.551Z,1.60
2023-09-23T23:31:00.761Z,1.75
2023-09-23T23:33:29.097Z,1.70
2023-09-23T23:35:59.971Z,1.80
2023-09-23T23:38:31.521Z,1.67
2023-09-23T23:40:59.736Z,2.15
2023-09-23T23:43:27.457Z,1.70
2023-09-23T23:46:05.191Z,1.60
2023-09-23T23:48:34.029Z,1.75
2023-09-23T23:53:28.989Z,1.40
2023-09-23T23:55:56.623Z,1.88
2023-09-23T23:58:24.550Z,1.67
